Time;durP1;ratioP1;P1;durP2;ratioP2;P2;SDS_P1;SDS_P2;PMS_P1;PMS_P2;Temp;Humidity;BMP_temperature;BMP_pressure;BME280_temperature;BME280_humidity;BME280_pressure;Samples;Min_cycle;Max_cycle;Signal;HPM_P1;HPM_P2
2023/03/10 00:01:28;;;;;;;;;17.67;12.67;;;;;;;;119867;1183;24968;-61
2023/03/10 00:03:58;;;;;;;;;18.00;15.00;;;;;;;;119878;1186;25383;-61
2023/03/10 00:06:28;;;;;;;;;18.00;15.00;;;;;;;;119873;1183;25520;-59
2023/03/10 00:08:58;;;;;;;;;21.75;17.75;;;;;;;;120065;1190;24693;-59
2023/03/10 00:11:26;;;;;;;;;18.00;15.67;;;;;;;;120109;1190;26126;-59
2023/03/10 00:13:54;;;;;;;;;24.75;15.75;;;;;;;;119910;1190;25994;-59
2023/03/10 00:16:25;;;;;;;;;15.25;12.25;;;;;;;;119927;1190;25130;-58
2023/03/10 00:18:54;;;;;;;;;18.50;15.25;;;;;;;;119895;1190;26068;-58
2023/03/10 00:21:26;;;;;;;;;25.25;18.00;;;;;;;;119907;1182;25698;-59
2023/03/10 00:23:55;;;;;;;;;19.33;13.00;;;;;;;;119926;1190;25212;-59
2023/03/10 00:26:24;;;;;;;;;16.50;14.25;;;;;;;;119895;1190;24770;-59
2023/03/10 00:28:53;;;;;;;;;17.50;15.50;;;;;;;;119930;1190;25094;-60
2023/03/10 00:31:24;;;;;;;;;14.33;8.33;;;;;;;;119941;1190;24850;-60
2023/03/10 00:33:54;;;;;;;;;20.25;15.00;;;;;;;;119968;1182;25616;-60
2023/03/10 00:36:25;;;;;;;;;17.50;14.25;;;;;;;;120105;1189;25933;-60
2023/03/10 00:38:55;;;;;;;;;16.50;15.00;;;;;;;;120112;1189;25405;-60
2023/03/10 00:41:25;;;;;;;;;15.75;10.25;;;;;;;;119967;1182;25141;-60
2023/03/10 00:43:53;;;;;;;;;13.33;12.00;;;;;;;;119957;1182;25459;-60
2023/03/10 00:46:22;;;;;;;;;19.75;13.25;;;;;;;;120053;1190;24793;-60
2023/03/10 00:48:51;;;;;;;;;16.50;14.00;;;;;;;;119920;1190;25198;-60
2023/03/10 00:51:20;;;;;;;;;23.33;13.67;;;;;;;;119927;1182;25623;-61
2023/03/10 00:53:48;;;;;;;;;26.25;14.50;;;;;;;;119958;1182;24976;-60
2023/03/10 00:56:26;;;;;;;;;16.00;13.00;;;;;;;;119916;1190;25120;-60
2023/03/10 00:58:57;;;;;;;;;17.00;14.75;;;;;;;;120101;1189;24818;-60
2023/03/10 01:01:31;;;;;;;;;5.67;3.00;;;;;;;;119984;1190;25579;-60
2023/03/10 01:04:04;;;;;;;;;16.33;13.67;;;;;;;;119922;1187;25421;-60
2023/03/10 01:06:34;;;;;;;;;19.33;16.67;;;;;;;;119920;1190;24821;-60
2023/03/10 01:09:03;;;;;;;;;20.00;15.00;;;;;;;;119916;1190;24702;-60
2023/03/10 01:11:32;;;;;;;;;18.33;12.67;;;;;;;;119940;1190;25583;-60
2023/03/10 01:14:02;;;;;;;;;16.00;13.00;;;;;;;;119960;1183;25607;-60
2023/03/10 01:16:30;;;;;;;;;15.50;13.25;;;;;;;;119935;1190;24841;-60
2023/03/10 01:18:59;;;;;;;;;15.67;13.67;;;;;;;;120119;1189;25865;-60
2023/03/10 01:21:30;;;;;;;;;11.25;10.25;;;;;;;;119936;1190;24852;-60
2023/03/10 01:23:59;;;;;;;;;15.00;12.25;;;;;;;;120062;1190;25645;-60
2023/03/10 01:26:28;;;;;;;;;16.50;12.00;;;;;;;;119912;1182;24919;-60
2023/03/10 01:28:56;;;;;;;;;15.25;10.00;;;;;;;;119748;1190;25494;-60
2023/03/10 01:31:24;;;;;;;;;15.50;13.00;;;;;;;;119924;1190;25601;-60
2023/03/10 01:33:53;;;;;;;;;12.25;11.00;;;;;;;;119891;1190;25403;-60
2023/03/10 01:36:24;;;;;;;;;16.67;13.00;;;;;;;;119937;1190;25605;-60
2023/03/10 01:38:54;;;;;;;;;13.25;10.00;;;;;;;;119912;1186;25153;-60
2023/03/10 01:41:23;;;;;;;;;13.25;11.25;;;;;;;;119911;1190;25386;-60
2023/03/10 01:43:53;;;;;;;;;16.33;14.00;;;;;;;;119927;1190;25024;-60
2023/03/10 01:46:30;;;;;;;;;11.67;7.67;;;;;;;;119882;1188;25276;-60
2023/03/10 01:49:05;;;;;;;;;13.00;9.75;;;;;;;;119940;1190;24895;-60
2023/03/10 01:51:35;;;;;;;;;18.50;13.00;;;;;;;;119900;1190;25633;-60
2023/03/10 01:54:06;;;;;;;;;16.67;11.00;;;;;;;;119960;1182;25027;-60
2023/03/10 01:56:34;;;;;;;;;12.00;10.50;;;;;;;;119934;1186;25136;-60
2023/03/10 01:59:03;;;;;;;;;7.00;6.50;;;;;;;;119937;1190;25569;-60
2023/03/10 02:01:31;;;;;;;;;11.00;11.00;;;;;;;;119930;1190;25259;-60
2023/03/10 02:04:05;;;;;;;;;13.67;12.33;;;;;;;;119899;1190;24819;-60
2023/03/10 02:06:35;;;;;;;;;15.00;12.33;;;;;;;;119921;1190;24760;-60
2023/03/10 02:09:04;;;;;;;;;8.67;8.67;;;;;;;;119922;1182;25134;-60
2023/03/10 02:11:33;;;;;;;;;13.33;11.00;;;;;;;;119908;1182;24875;-60
2023/03/10 02:14:03;;;;;;;;;14.25;10.00;;;;;;;;119918;1187;25060;-60
2023/03/10 02:16:32;;;;;;;;;16.33;11.00;;;;;;;;119899;1183;25695;-61
2023/03/10 02:19:03;;;;;;;;;11.50;10.25;;;;;;;;119874;1190;25227;-61
2023/03/10 02:21:44;;;;;;;;;15.00;13.00;;;;;;;;119950;1190;25173;-61
2023/03/10 02:24:31;;;;;;;;;14.00;12.00;;;;;;;;119923;1190;25672;-61
2023/03/10 02:27:29;;;;;;;;;11.67;10.67;;;;;;;;119928;1181;25652;-61
2023/03/10 02:30:18;;;;;;;;;15.00;10.75;;;;;;;;119900;1187;24998;-61
2023/03/10 02:32:54;;;;;;;;;13.00;10.00;;;;;;;;119925;1182;25109;-61
2023/03/10 02:35:22;;;;;;;;;9.67;9.00;;;;;;;;119921;1190;25039;-61
2023/03/10 02:37:50;;;;;;;;;12.00;12.00;;;;;;;;119937;1182;25408;-61
2023/03/10 02:40:43;;;;;;;;;11.50;10.00;;;;;;;;120109;1184;25003;-61
2023/03/10 02:43:25;;;;;;;;;12.33;10.67;;;;;;;;120115;1190;25389;-61
2023/03/10 02:46:00;;;;;;;;;12.25;10.25;;;;;;;;120023;1190;25166;-61
2023/03/10 02:48:31;;;;;;;;;12.25;11.25;;;;;;;;120122;1189;24729;-60
2023/03/10 02:51:01;;;;;;;;;11.00;9.75;;;;;;;;119946;1190;25226;-61
2023/03/10 02:53:29;;;;;;;;;6.00;6.00;;;;;;;;119971;1182;25566;-61
2023/03/10 02:55:58;;;;;;;;;13.00;11.00;;;;;;;;120101;1190;25541;-60
2023/03/10 02:58:29;;;;;;;;;15.00;11.00;;;;;;;;120100;1190;25144;-61
2023/03/10 03:00:57;;;;;;;;;11.00;9.50;;;;;;;;119904;1190;24825;-61
2023/03/10 03:03:26;;;;;;;;;13.50;10.50;;;;;;;;119960;1190;25163;-60
2023/03/10 03:05:54;;;;;;;;;11.00;11.00;;;;;;;;119887;1190;25728;-61
2023/03/10 03:08:23;;;;;;;;;9.50;8.50;;;;;;;;119937;1181;25206;-61
2023/03/10 03:10:51;;;;;;;;;11.33;11.00;;;;;;;;119728;1190;24766;-61
2023/03/10 03:13:19;;;;;;;;;16.33;10.67;;;;;;;;119700;1190;25453;-60
2023/03/10 03:15:47;;;;;;;;;13.75;10.50;;;;;;;;119936;1177;25570;-61
2023/03/10 03:18:16;;;;;;;;;13.00;10.67;;;;;;;;119930;1182;25467;-60
2023/03/10 03:20:44;;;;;;;;;9.00;8.00;;;;;;;;119912;1184;24829;-61
2023/03/10 03:23:12;;;;;;;;;11.50;10.25;;;;;;;;119956;1182;25381;-60
2023/03/10 03:25:41;;;;;;;;;17.25;9.75;;;;;;;;119862;1190;25264;-60
2023/03/10 03:28:11;;;;;;;;;13.33;10.00;;;;;;;;119944;1190;25446;-60
2023/03/10 03:30:39;;;;;;;;;13.00;9.67;;;;;;;;119901;1182;25488;-60
2023/03/10 03:33:08;;;;;;;;;11.50;9.00;;;;;;;;119907;1187;24796;-60
2023/03/10 03:35:36;;;;;;;;;12.25;9.50;;;;;;;;119915;1190;25594;-60
2023/03/10 03:38:05;;;;;;;;;10.50;9.75;;;;;;;;119952;1190;26130;-60
2023/03/10 03:40:34;;;;;;;;;10.00;8.00;;;;;;;;119957;1182;25459;-60
2023/03/10 03:43:04;;;;;;;;;9.00;8.67;;;;;;;;119935;1190;24876;-60
2023/03/10 03:45:32;;;;;;;;;13.50;10.50;;;;;;;;119943;1190;25630;-58
2023/03/10 03:48:00;;;;;;;;;8.00;8.00;;;;;;;;119957;1183;24793;-61
2023/03/10 03:50:29;;;;;;;;;11.50;9.00;;;;;;;;119957;1190;25638;-61
2023/03/10 03:52:57;;;;;;;;;8.50;8.50;;;;;;;;120086;1190;25007;-61
2023/03/10 03:55:25;;;;;;;;;9.33;6.67;;;;;;;;120038;1189;25550;-60
2023/03/10 03:57:53;;;;;;;;;9.25;8.00;;;;;;;;119924;1190;25360;-60
2023/03/10 04:00:23;;;;;;;;;12.75;8.50;;;;;;;;119917;1190;25361;-60
2023/03/10 04:02:51;;;;;;;;;15.25;10.00;;;;;;;;119915;1190;25041;-58
2023/03/10 04:05:20;;;;;;;;;9.50;8.25;;;;;;;;119896;1190;25666;-58
2023/03/10 04:07:48;;;;;;;;;12.75;9.75;;;;;;;;119927;1190;25001;-58
2023/03/10 04:10:19;;;;;;;;;13.00;11.00;;;;;;;;119945;1181;25403;-59
2023/03/10 04:12:47;;;;;;;;;8.50;6.25;;;;;;;;119955;1182;25350;-60
2023/03/10 04:15:16;;;;;;;;;10.67;9.33;;;;;;;;120033;1187;25476;-60
2023/03/10 04:17:44;;;;;;;;;8.50;7.00;;;;;;;;119931;1190;25014;-60
2023/03/10 04:20:13;;;;;;;;;11.00;10.50;;;;;;;;119934;1190;25172;-60
2023/03/10 04:22:41;;;;;;;;;9.67;8.00;;;;;;;;120041;1186;25056;-60
2023/03/10 04:25:10;;;;;;;;;9.67;9.00;;;;;;;;119897;1189;24733;-60
2023/03/10 04:27:38;;;;;;;;;11.00;9.75;;;;;;;;119840;1190;25580;-60
2023/03/10 04:30:08;;;;;;;;;10.75;8.50;;;;;;;;119953;1182;24918;-60
2023/03/10 04:32:36;;;;;;;;;8.25;8.25;;;;;;;;119892;1182;25414;-60
2023/03/10 04:35:07;;;;;;;;;10.00;9.25;;;;;;;;119897;1190;24809;-60
2023/03/10 04:37:35;;;;;;;;;8.50;8.50;;;;;;;;120140;1183;26379;-60
2023/03/10 04:40:08;;;;;;;;;9.50;9.50;;;;;;;;119908;1190;25608;-60
2023/03/10 04:42:36;;;;;;;;;10.25;8.00;;;;;;;;119920;1190;25585;-60
2023/03/10 04:45:05;;;;;;;;;7.75;7.25;;;;;;;;120017;1189;25306;-60
2023/03/10 04:47:33;;;;;;;;;9.25;7.50;;;;;;;;119893;1190;24876;-60
2023/03/10 04:50:02;;;;;;;;;12.25;9.00;;;;;;;;119972;1182;24788;-60
2023/03/10 04:52:30;;;;;;;;;9.50;8.50;;;;;;;;119900;1190;25525;-60
2023/03/10 04:54:58;;;;;;;;;11.00;9.00;;;;;;;;120094;1176;25284;-60
2023/03/10 04:57:26;;;;;;;;;10.00;10.00;;;;;;;;119939;1182;24840;-60
2023/03/10 04:59:54;;;;;;;;;10.75;8.50;;;;;;;;120108;1182;25272;-60
2023/03/10 05:02:23;;;;;;;;;9.00;9.00;;;;;;;;119967;1182;25229;-60
2023/03/10 05:04:51;;;;;;;;;12.75;8.00;;;;;;;;120111;1189;25473;-60
2023/03/10 05:07:20;;;;;;;;;12.50;9.75;;;;;;;;120110;1189;25522;-60
2023/03/10 05:09:48;;;;;;;;;9.33;8.00;;;;;;;;119909;1190;24836;-60
2023/03/10 05:12:16;;;;;;;;;13.00;10.00;;;;;;;;119964;1177;24884;-60
2023/03/10 05:14:45;;;;;;;;;12.00;9.00;;;;;;;;119909;1190;25115;-60
2023/03/10 05:17:13;;;;;;;;;9.50;9.50;;;;;;;;119906;1190;24924;-60
2023/03/10 05:19:41;;;;;;;;;6.25;6.25;;;;;;;;119946;1177;24932;-60
2023/03/10 05:22:11;;;;;;;;;7.33;7.33;;;;;;;;120101;1189;25322;-60
2023/03/10 05:24:39;;;;;;;;;8.00;8.00;;;;;;;;120109;1190;24738;-60
2023/03/10 05:27:09;;;;;;;;;10.67;8.00;;;;;;;;120213;1180;25244;-61
2023/03/10 05:29:38;;;;;;;;;11.25;9.00;;;;;;;;120225;1189;25293;-60
2023/03/10 05:32:06;;;;;;;;;11.25;7.75;;;;;;;;119984;1189;25389;-60
2023/03/10 05:34:34;;;;;;;;;11.33;8.00;;;;;;;;119996;1187;25078;-61
2023/03/10 05:37:03;;;;;;;;;9.33;9.33;;;;;;;;119969;1183;24960;-61
2023/03/10 05:39:31;;;;;;;;;10.50;8.50;;;;;;;;119921;1190;24751;-61
2023/03/10 05:41:59;;;;;;;;;9.50;9.00;;;;;;;;119873;1190;24904;-61
2023/03/10 05:44:27;;;;;;;;;10.75;8.00;;;;;;;;119936;1182;25364;-61
2023/03/10 05:46:56;;;;;;;;;10.00;9.00;;;;;;;;119912;1184;25221;-61
2023/03/10 05:49:24;;;;;;;;;11.50;9.00;;;;;;;;119900;1177;24933;-61
2023/03/10 05:51:52;;;;;;;;;9.50;8.50;;;;;;;;119913;1187;25123;-61
2023/03/10 05:54:21;;;;;;;;;13.00;9.25;;;;;;;;120011;1189;25400;-61
2023/03/10 05:56:49;;;;;;;;;10.33;9.00;;;;;;;;119919;1190;25297;-61
2023/03/10 05:59:17;;;;;;;;;15.25;10.75;;;;;;;;119890;1190;25491;-61
2023/03/10 06:01:45;;;;;;;;;12.50;10.50;;;;;;;;120015;1190;25107;-61
2023/03/10 06:04:14;;;;;;;;;10.00;9.00;;;;;;;;119957;1182;25443;-61
2023/03/10 06:06:42;;;;;;;;;9.00;9.00;;;;;;;;120111;1182;24762;-61
2023/03/10 06:09:10;;;;;;;;;11.25;10.25;;;;;;;;119954;1190;25619;-61
2023/03/10 06:11:38;;;;;;;;;10.25;9.00;;;;;;;;119935;1190;25427;-61
2023/03/10 06:14:07;;;;;;;;;12.50;11.00;;;;;;;;119919;1182;25551;-61
2023/03/10 06:16:35;;;;;;;;;9.50;9.50;;;;;;;;119921;1190;25530;-61
2023/03/10 06:19:03;;;;;;;;;8.25;7.50;;;;;;;;119928;1190;25024;-61
2023/03/10 06:21:31;;;;;;;;;11.33;10.67;;;;;;;;119910;1190;24918;-61
2023/03/10 06:23:59;;;;;;;;;15.00;9.25;;;;;;;;119947;1182;25237;-61
2023/03/10 06:26:28;;;;;;;;;14.00;10.00;;;;;;;;120000;1181;24937;-61
2023/03/10 06:28:56;;;;;;;;;10.75;10.00;;;;;;;;119986;1176;25468;-61
2023/03/10 06:31:24;;;;;;;;;12.25;8.50;;;;;;;;119936;1190;25542;-61
2023/03/10 06:33:53;;;;;;;;;10.00;8.75;;;;;;;;119957;1183;25494;-61
2023/03/10 06:36:24;;;;;;;;;8.00;8.00;;;;;;;;120100;1182;25535;-61
2023/03/10 06:38:53;;;;;;;;;10.25;9.00;;;;;;;;119923;1182;24993;-61
2023/03/10 06:41:22;;;;;;;;;10.00;9.00;;;;;;;;119984;1182;25553;-61
2023/03/10 06:43:50;;;;;;;;;9.67;8.00;;;;;;;;119958;1190;25646;-61
2023/03/10 06:46:19;;;;;;;;;11.33;9.00;;;;;;;;119871;1180;25231;-61
2023/03/10 06:48:48;;;;;;;;;10.50;9.50;;;;;;;;119864;1190;25030;-61
2023/03/10 06:51:18;;;;;;;;;10.00;9.00;;;;;;;;119947;1186;25336;-61
2023/03/10 06:53:47;;;;;;;;;10.75;9.75;;;;;;;;119924;1190;25065;-61
2023/03/10 06:56:19;;;;;;;;;8.75;8.50;;;;;;;;119929;1190;24749;-61
2023/03/10 06:58:47;;;;;;;;;7.33;7.33;;;;;;;;119924;1182;25058;-61
2023/03/10 07:01:27;;;;;;;;;8.75;7.00;;;;;;;;119936;1182;25737;-61
2023/03/10 07:03:56;;;;;;;;;12.33;10.00;;;;;;;;119905;1190;25262;-62
2023/03/10 07:06:24;;;;;;;;;5.00;5.00;;;;;;;;119927;1190;25012;-61
2023/03/10 07:08:53;;;;;;;;;10.00;8.75;;;;;;;;119903;1187;25053;-61
2023/03/10 07:11:22;;;;;;;;;11.00;7.75;;;;;;;;119991;1187;25475;-62
2023/03/10 07:13:51;;;;;;;;;6.50;6.50;;;;;;;;120064;1190;25685;-67
2023/03/10 07:16:20;;;;;;;;;11.00;8.50;;;;;;;;119917;1182;24994;-67
2023/03/10 07:18:48;;;;;;;;;18.00;15.50;;;;;;;;119966;1178;25266;-62
2023/03/10 07:21:18;;;;;;;;;12.00;11.00;;;;;;;;119867;1182;24927;-64
2023/03/10 07:23:47;;;;;;;;;17.00;16.67;;;;;;;;119948;1190;24782;-65
2023/03/10 07:26:17;;;;;;;;;15.67;15.67;;;;;;;;119802;1190;24746;-63
2023/03/10 07:28:46;;;;;;;;;18.33;15.00;;;;;;;;119893;1190;25468;-67
2023/03/10 07:31:15;;;;;;;;;18.75;18.25;;;;;;;;120081;1190;25019;-66
2023/03/10 07:33:44;;;;;;;;;18.67;14.33;;;;;;;;119827;1183;25475;-66
2023/03/10 07:36:14;;;;;;;;;40.67;33.00;;;;;;;;119934;1190;24857;-70
2023/03/10 07:38:43;;;;;;;;;22.50;18.00;;;;;;;;119995;1190;24789;-63
2023/03/10 07:41:16;;;;;;;;;19.50;17.75;;;;;;;;119945;1190;25058;-61
2023/03/10 07:43:45;;;;;;;;;19.25;16.25;;;;;;;;119958;1190;25602;-61
2023/03/10 07:46:14;;;;;;;;;21.25;14.50;;;;;;;;119896;1182;25051;-62
2023/03/10 07:48:43;;;;;;;;;18.50;16.00;;;;;;;;119988;1185;25507;-61
2023/03/10 07:51:11;;;;;;;;;15.25;14.75;;;;;;;;119945;1181;25291;-62
2023/03/10 07:53:40;;;;;;;;;18.00;15.75;;;;;;;;119904;1190;25213;-62
2023/03/10 07:56:10;;;;;;;;;18.50;14.25;;;;;;;;120095;1182;25659;-61
2023/03/10 07:58:39;;;;;;;;;13.75;8.00;;;;;;;;119887;1178;25285;-61
2023/03/10 08:01:08;;;;;;;;;14.00;13.00;;;;;;;;119865;1178;25090;-61
2023/03/10 08:03:36;;;;;;;;;16.00;14.00;;;;;;;;119953;1183;25289;-61
2023/03/10 08:06:05;;;;;;;;;16.67;15.00;;;;;;;;119965;1190;25364;-61
2023/03/10 08:08:33;;;;;;;;;15.50;12.00;;;;;;;;119865;1176;25395;-62
2023/03/10 08:11:08;;;;;;;;;13.00;12.00;;;;;;;;120003;1182;25512;-62
2023/03/10 08:13:37;;;;;;;;;12.00;11.00;;;;;;;;119921;1187;25443;-62
2023/03/10 08:16:06;;;;;;;;;16.75;13.75;;;;;;;;119905;1190;25140;-61
2023/03/10 08:18:34;;;;;;;;;16.67;14.00;;;;;;;;119905;1190;25231;-62
2023/03/10 08:21:05;;;;;;;;;15.33;12.00;;;;;;;;120040;1177;24823;-61
2023/03/10 08:23:35;;;;;;;;;16.33;16.33;;;;;;;;119916;1190;25129;-64
2023/03/10 08:26:08;;;;;;;;;11.50;11.00;;;;;;;;119932;1190;25623;-64
2023/03/10 08:28:37;;;;;;;;;14.67;13.67;;;;;;;;119928;1182;25421;-64
2023/03/10 08:31:11;;;;;;;;;13.25;11.75;;;;;;;;119946;1190;25482;-65
2023/03/10 08:33:39;;;;;;;;;12.67;10.33;;;;;;;;119939;1190;25103;-65
2023/03/10 08:36:18;;;;;;;;;11.00;10.00;;;;;;;;119935;1189;25384;-64
2023/03/10 08:38:46;;;;;;;;;13.50;11.00;;;;;;;;119980;1182;25384;-63
2023/03/10 08:41:21;;;;;;;;;14.75;12.00;;;;;;;;120107;1190;24927;-63
2023/03/10 08:43:52;;;;;;;;;10.50;10.25;;;;;;;;120100;1189;25271;-62
2023/03/10 08:46:23;;;;;;;;;13.25;10.75;;;;;;;;119929;1179;24973;-62
2023/03/10 08:48:52;;;;;;;;;12.75;11.00;;;;;;;;119942;1190;24932;-62
2023/03/10 08:51:20;;;;;;;;;17.00;12.75;;;;;;;;120107;1181;25049;-60
2023/03/10 08:53:50;;;;;;;;;12.00;10.75;;;;;;;;119905;1190;24790;-59
2023/03/10 08:56:19;;;;;;;;;13.75;12.75;;;;;;;;119953;1181;24815;-60
2023/03/10 08:58:48;;;;;;;;;11.50;10.00;;;;;;;;119921;1190;25205;-60
2023/03/10 09:01:16;;;;;;;;;12.75;11.00;;;;;;;;119936;1190;25430;-60
2023/03/10 09:03:45;;;;;;;;;16.33;13.00;;;;;;;;119927;1190;25001;-60
2023/03/10 09:06:14;;;;;;;;;12.75;11.25;;;;;;;;119949;1182;25371;-60
2023/03/10 09:08:42;;;;;;;;;11.33;11.00;;;;;;;;119923;1190;24858;-59
2023/03/10 09:11:16;;;;;;;;;13.00;11.00;;;;;;;;119943;1190;24938;-58
2023/03/10 09:13:44;;;;;;;;;8.00;8.00;;;;;;;;120039;1190;25577;-59
2023/03/10 09:16:14;;;;;;;;;11.75;11.25;;;;;;;;119964;1177;25368;-58
2023/03/10 09:18:43;;;;;;;;;11.75;8.25;;;;;;;;119938;1190;24707;-58
2023/03/10 09:21:14;;;;;;;;;16.25;11.25;;;;;;;;119934;1182;25383;-60
2023/03/10 09:23:44;;;;;;;;;9.50;9.50;;;;;;;;119922;1190;24971;-58
2023/03/10 09:26:12;;;;;;;;;13.50;12.50;;;;;;;;119908;1182;24947;-59
2023/03/10 09:28:41;;;;;;;;;11.75;11.75;;;;;;;;119893;1190;25115;-58
2023/03/10 09:31:16;;;;;;;;;17.50;12.50;;;;;;;;119914;1182;25339;-58
2023/03/10 09:33:45;;;;;;;;;15.00;13.33;;;;;;;;119928;1177;24704;-59
2023/03/10 09:36:16;;;;;;;;;11.25;11.25;;;;;;;;119955;1182;24927;-59
2023/03/10 09:38:44;;;;;;;;;10.75;8.25;;;;;;;;120052;1190;25223;-58
2023/03/10 09:41:15;;;;;;;;;11.00;11.00;;;;;;;;119956;1183;25152;-59
2023/03/10 09:43:49;;;;;;;;;15.00;11.00;;;;;;;;119930;1190;25418;-57
2023/03/10 09:46:41;;;;;;;;;12.50;11.00;;;;;;;;119973;1183;25774;-58
2023/03/10 09:49:24;;;;;;;;;13.00;11.25;;;;;;;;119931;1190;24883;-61
2023/03/10 09:51:52;;;;;;;;;11.00;9.67;;;;;;;;119938;1190;25195;-57
2023/03/10 09:54:33;;;;;;;;;12.67;11.67;;;;;;;;120112;1190;25032;-57
2023/03/10 09:57:03;;;;;;;;;11.00;11.00;;;;;;;;119884;1190;25406;-58
2023/03/10 09:59:37;;;;;;;;;15.25;11.75;;;;;;;;119954;1179;24925;-58
2023/03/10 10:02:23;;;;;;;;;17.00;12.00;;;;;;;;119959;1185;25680;-58
2023/03/10 10:05:01;;;;;;;;;9.33;8.67;;;;;;;;119945;1182;25099;-58
2023/03/10 10:07:45;;;;;;;;;10.00;9.25;;;;;;;;119905;1190;25198;-58
2023/03/10 10:10:17;;;;;;;;;9.50;8.00;;;;;;;;119900;1190;24841;-58
2023/03/10 10:12:46;;;;;;;;;8.25;7.50;;;;;;;;120049;1181;24940;-58
2023/03/10 10:15:21;;;;;;;;;11.67;11.00;;;;;;;;119917;1188;25633;-59
2023/03/10 10:18:12;;;;;;;;;11.75;10.00;;;;;;;;119913;1182;24934;-58
2023/03/10 10:21:35;;;;;;;;;10.00;10.00;;;;;;;;120110;1190;24958;-57
2023/03/10 10:24:17;;;;;;;;;10.00;9.00;;;;;;;;119693;1190;25565;-57
2023/03/10 10:26:45;;;;;;;;;12.67;11.67;;;;;;;;119935;1183;26504;-57
2023/03/10 10:29:24;;;;;;;;;13.00;11.50;;;;;;;;119948;1190;25235;-58
2023/03/10 10:32:09;;;;;;;;;14.33;12.00;;;;;;;;119955;1190;25448;-59
2023/03/10 10:34:42;;;;;;;;;13.50;11.00;;;;;;;;119913;1182;25543;-58
2023/03/10 10:37:41;;;;;;;;;19.50;14.50;;;;;;;;120123;1190;24878;-57
2023/03/10 10:40:28;;;;;;;;;15.75;13.00;;;;;;;;119980;1190;24745;-57
2023/03/10 10:42:59;;;;;;;;;14.25;12.50;;;;;;;;119947;1190;25528;-57
2023/03/10 10:45:32;;;;;;;;;17.00;14.50;;;;;;;;120105;1190;24937;-57
2023/03/10 10:48:00;;;;;;;;;12.75;12.25;;;;;;;;120111;1186;24881;-57
2023/03/10 10:50:30;;;;;;;;;17.25;13.25;;;;;;;;119937;1190;24796;-57
2023/03/10 10:53:23;;;;;;;;;19.67;14.67;;;;;;;;120111;1190;25007;-57
2023/03/10 10:56:11;;;;;;;;;15.33;14.00;;;;;;;;120064;1190;24787;-57
2023/03/10 10:58:41;;;;;;;;;18.00;13.67;;;;;;;;119889;1190;24856;-57
2023/03/10 11:01:15;;;;;;;;;14.25;11.00;;;;;;;;119907;1190;25790;-58
2023/03/10 11:03:47;;;;;;;;;14.00;10.50;;;;;;;;119875;1190;25077;-59
2023/03/10 11:06:31;;;;;;;;;12.25;7.50;;;;;;;;119921;1190;25003;-58
2023/03/10 11:09:11;;;;;;;;;10.50;7.50;;;;;;;;119906;1190;24988;-59
2023/03/10 11:12:04;;;;;;;;;13.25;10.00;;;;;;;;119911;1183;25443;-58
2023/03/10 11:14:48;;;;;;;;;9.25;9.25;;;;;;;;119930;1190;24903;-58
2023/03/10 11:17:34;;;;;;;;;15.25;11.75;;;;;;;;119948;1190;24859;-58
2023/03/10 11:20:14;;;;;;;;;11.00;9.67;;;;;;;;119999;1190;25526;-58
2023/03/10 11:22:46;;;;;;;;;11.33;8.00;;;;;;;;119938;1190;24982;-58
2023/03/10 11:25:41;;;;;;;;;6.75;6.75;;;;;;;;119871;1187;25828;-58
2023/03/10 11:28:24;;;;;;;;;11.33;10.00;;;;;;;;119933;1189;24666;-58
2023/03/10 11:31:08;;;;;;;;;8.00;8.00;;;;;;;;120018;1182;25046;-58
2023/03/10 11:33:51;;;;;;;;;9.00;5.00;;;;;;;;119922;1186;25057;-58
2023/03/10 11:36:56;;;;;;;;;8.33;6.67;;;;;;;;119912;1183;25149;-57
2023/03/10 11:39:47;;;;;;;;;9.00;6.25;;;;;;;;120052;1187;24959;-57
2023/03/10 11:42:33;;;;;;;;;9.75;8.50;;;;;;;;119906;1190;25096;-59
2023/03/10 11:45:10;;;;;;;;;10.00;8.50;;;;;;;;119971;1190;25113;-57
2023/03/10 11:47:53;;;;;;;;;8.00;6.00;;;;;;;;119930;1190;25132;-59
2023/03/10 11:50:39;;;;;;;;;10.67;7.67;;;;;;;;119878;1182;24898;-59
2023/03/10 11:53:33;;;;;;;;;9.00;8.00;;;;;;;;119954;1190;25096;-59
2023/03/10 11:56:03;;;;;;;;;7.50;5.50;;;;;;;;120033;1190;25790;-59
2023/03/10 11:58:34;;;;;;;;;10.50;8.50;;;;;;;;119935;1190;25282;-58
2023/03/10 12:01:02;;;;;;;;;12.25;9.50;;;;;;;;120120;1190;25752;-58
2023/03/10 12:03:39;;;;;;;;;11.00;9.00;;;;;;;;120111;1190;25016;-57
2023/03/10 12:06:12;;;;;;;;;9.75;7.50;;;;;;;;120082;1183;25139;-60
2023/03/10 12:08:41;;;;;;;;;9.75;7.50;;;;;;;;119953;1190;24952;-58
2023/03/10 12:11:19;;;;;;;;;10.00;7.00;;;;;;;;119947;1187;25801;-58
2023/03/10 12:13:51;;;;;;;;;7.75;6.75;;;;;;;;119954;1190;25074;-59
2023/03/10 12:16:21;;;;;;;;;10.75;7.00;;;;;;;;119952;1190;25248;-61
2023/03/10 12:18:50;;;;;;;;;8.75;8.00;;;;;;;;119926;1182;25492;-59
2023/03/10 12:21:21;;;;;;;;;5.00;5.00;;;;;;;;119963;1190;25276;-58
2023/03/10 12:23:52;;;;;;;;;8.33;6.67;;;;;;;;119866;1183;25097;-57
2023/03/10 12:26:38;;;;;;;;;8.33;8.00;;;;;;;;119921;1190;24821;-60
2023/03/10 12:29:25;;;;;;;;;7.67;6.33;;;;;;;;119928;1182;25234;-59
2023/03/10 12:31:54;;;;;;;;;8.00;7.75;;;;;;;;119920;1190;24945;-59
2023/03/10 12:34:28;;;;;;;;;9.67;8.33;;;;;;;;119916;1190;25639;-58
2023/03/10 12:37:07;;;;;;;;;8.00;7.00;;;;;;;;119903;1190;25176;-59
2023/03/10 12:39:38;;;;;;;;;8.75;8.00;;;;;;;;119902;1183;25319;-59
2023/03/10 12:42:28;;;;;;;;;6.00;6.00;;;;;;;;119920;1190;24730;-59
2023/03/10 12:45:16;;;;;;;;;11.25;8.75;;;;;;;;119950;1182;24756;-59
2023/03/10 12:47:48;;;;;;;;;10.00;9.67;;;;;;;;119945;1187;25573;-59
2023/03/10 12:50:22;;;;;;;;;10.00;6.67;;;;;;;;119924;1190;25526;-59
2023/03/10 12:53:04;;;;;;;;;10.00;7.00;;;;;;;;120047;1186;25558;-59
2023/03/10 12:55:32;;;;;;;;;9.33;9.00;;;;;;;;119962;1186;25679;-60
2023/03/10 12:58:06;;;;;;;;;5.75;5.25;;;;;;;;119931;1190;24715;-61
2023/03/10 13:00:49;;;;;;;;;10.33;8.33;;;;;;;;119919;1190;26270;-61
2023/03/10 13:03:40;;;;;;;;;9.00;7.00;;;;;;;;119729;1190;25545;-62
2023/03/10 13:06:19;;;;;;;;;7.00;7.00;;;;;;;;119877;1190;25233;-60
2023/03/10 13:08:54;;;;;;;;;8.33;7.00;;;;;;;;120088;1182;25656;-61
2023/03/10 13:11:41;;;;;;;;;9.67;7.00;;;;;;;;119888;1186;25209;-60
2023/03/10 13:14:14;;;;;;;;;11.50;8.75;;;;;;;;119908;1190;25519;-61
2023/03/10 13:16:59;;;;;;;;;9.50;8.00;;;;;;;;120016;1182;25004;-61
2023/03/10 13:19:30;;;;;;;;;13.25;8.75;;;;;;;;120032;1186;25167;-61
2023/03/10 13:21:58;;;;;;;;;8.00;6.00;;;;;;;;120023;1190;25512;-62
2023/03/10 13:24:29;;;;;;;;;5.67;5.67;;;;;;;;119908;1190;25673;-62
2023/03/10 13:27:27;;;;;;;;;10.00;7.00;;;;;;;;120023;1186;25455;-62
2023/03/10 13:29:58;;;;;;;;;9.50;8.75;;;;;;;;120003;1183;25497;-61
2023/03/10 13:32:28;;;;;;;;;11.00;8.00;;;;;;;;119987;1177;25385;-62
2023/03/10 13:34:56;;;;;;;;;11.00;7.75;;;;;;;;119936;1186;25442;-61
2023/03/10 13:37:25;;;;;;;;;10.67;9.00;;;;;;;;119926;1182;24937;-61
2023/03/10 13:40:06;;;;;;;;;11.00;8.00;;;;;;;;119996;1190;25034;-61
2023/03/10 13:42:34;;;;;;;;;9.50;8.75;;;;;;;;120032;1182;25257;-61
2023/03/10 13:45:21;;;;;;;;;11.25;7.75;;;;;;;;119929;1187;24976;-62
2023/03/10 13:47:50;;;;;;;;;9.25;8.25;;;;;;;;120040;1177;25679;-64
2023/03/10 13:50:19;;;;;;;;;8.00;8.00;;;;;;;;119928;1186;25580;-64
2023/03/10 13:52:52;;;;;;;;;9.50;6.50;;;;;;;;120063;1176;25439;-62
2023/03/10 13:55:21;;;;;;;;;14.00;9.00;;;;;;;;119940;1190;24980;-62
2023/03/10 13:57:50;;;;;;;;;5.00;4.75;;;;;;;;119979;1177;25541;-62
2023/03/10 14:00:21;;;;;;;;;13.50;10.50;;;;;;;;119888;1182;25024;-62
2023/03/10 14:02:51;;;;;;;;;23.67;20.00;;;;;;;;119891;1187;25319;-63
2023/03/10 14:05:41;;;;;;;;;18.50;18.50;;;;;;;;119889;1190;25134;-63
2023/03/10 14:08:27;;;;;;;;;20.67;16.00;;;;;;;;119929;1182;26281;-63
2023/03/10 14:11:31;;;;;;;;;18.00;16.50;;;;;;;;119936;1190;25260;-65
2023/03/10 14:14:00;;;;;;;;;18.00;15.00;;;;;;;;119881;1190;24972;-65
2023/03/10 14:16:49;;;;;;;;;22.00;18.25;;;;;;;;119936;1190;25027;-65
2023/03/10 14:19:42;;;;;;;;;18.50;15.00;;;;;;;;119946;1182;25080;-65
2023/03/10 14:22:26;;;;;;;;;22.00;18.00;;;;;;;;120026;1189;25230;-64
2023/03/10 14:24:56;;;;;;;;;19.25;15.00;;;;;;;;120103;1181;24834;-61
2023/03/10 14:27:25;;;;;;;;;20.50;15.25;;;;;;;;119902;1190;25000;-61
2023/03/10 14:29:56;;;;;;;;;17.67;15.67;;;;;;;;119871;1190;25153;-61
2023/03/10 14:32:24;;;;;;;;;20.75;16.75;;;;;;;;119877;1190;24963;-61
2023/03/10 14:34:53;;;;;;;;;19.75;15.50;;;;;;;;119932;1182;25662;-60
2023/03/10 14:37:22;;;;;;;;;15.33;13.00;;;;;;;;119916;1190;25206;-60
2023/03/10 14:39:50;;;;;;;;;19.67;14.67;;;;;;;;119977;1190;25447;-60
2023/03/10 14:42:22;;;;;;;;;18.75;14.00;;;;;;;;120032;1182;24767;-61
2023/03/10 14:44:51;;;;;;;;;14.67;13.33;;;;;;;;119935;1190;25357;-60